createdAt,value
2023-03-29T00:00:03.267Z,941.35
2023-03-29T00:05:08.131Z,941.39
2023-03-29T00:10:03.108Z,941.33
2023-03-29T00:15:03.097Z,941.39
2023-03-29T00:20:03.088Z,941.51
2023-03-29T00:25:03.051Z,941.55
2023-03-29T00:30:03.417Z,941.57
2023-03-29T00:35:03.244Z,941.61
2023-03-29T00:40:03.365Z,941.55
2023-03-29T00:45:08.048Z,941.53
2023-03-29T00:50:03.404Z,941.47
2023-03-29T00:55:02.997Z,941.49
2023-03-29T01:00:04.561Z,941.49
2023-03-29T01:05:04.640Z,941.51
2023-03-29T01:10:03.072Z,941.55
2023-03-29T01:15:02.959Z,941.53
2023-03-29T01:20:03.153Z,941.57
2023-03-29T01:25:03.074Z,941.55
2023-03-29T01:30:03.087Z,941.59
2023-03-29T01:35:03.087Z,941.53
2023-03-29T01:40:03.115Z,941.51
2023-03-29T01:45:03.031Z,941.53
2023-03-29T01:50:03.261Z,941.55
2023-03-29T01:55:02.976Z,941.57
2023-03-29T02:00:03.153Z,941.59
2023-03-29T02:05:03.107Z,941.59
2023-03-29T02:10:03.092Z,941.55
2023-03-29T02:15:03.070Z,941.49
2023-03-29T02:20:03.033Z,941.55
2023-03-29T02:25:04.026Z,941.55
2023-03-29T02:30:03.157Z,941.59
2023-03-29T02:35:03.121Z,941.64
2023-03-29T02:40:03.307Z,941.59
2023-03-29T02:45:02.994Z,941.49
2023-03-29T02:50:03.204Z,941.47
2023-03-29T02:55:02.968Z,941.41
2023-03-29T03:00:03.266Z,941.37
2023-03-29T03:05:02.974Z,941.37
2023-03-29T03:10:03.158Z,941.33
2023-03-29T03:15:03.009Z,941.37
2023-03-29T03:20:03.075Z,941.37
2023-03-29T03:25:03.132Z,941.33
2023-03-29T03:30:03.142Z,941.27
2023-03-29T03:35:02.908Z,941.29
2023-03-29T03:40:03.264Z,941.29
2023-03-29T03:45:03.178Z,941.23
2023-03-29T03:50:03.045Z,941.13
2023-03-29T03:55:03.036Z,941.13
2023-03-29T04:00:03.176Z,941.15
2023-03-29T04:05:02.989Z,941.17
2023-03-29T04:10:07.608Z,941.17
2023-03-29T04:15:02.997Z,941.15
2023-03-29T04:20:03.062Z,941.13
2023-03-29T04:25:03.028Z,941.13
2023-03-29T04:30:03.228Z,941.09
2023-03-29T04:35:03.065Z,941.04
2023-03-29T04:40:03.191Z,940.94
2023-03-29T04:45:03.011Z,941.02
2023-03-29T04:50:03.117Z,940.92
2023-03-29T04:55:02.963Z,940.94
2023-03-29T05:00:03.018Z,940.88
2023-03-29T05:05:03.009Z,940.84
2023-03-29T05:10:03.046Z,940.78
2023-03-29T05:15:02.959Z,940.76
2023-03-29T05:20:03.141Z,940.78
2023-03-29T05:25:02.983Z,940.80
2023-03-29T05:30:03.072Z,940.78
2023-03-29T05:35:02.989Z,940.80
2023-03-29T05:40:06.201Z,940.84
2023-03-29T05:45:03.011Z,940.86
2023-03-29T05:50:03.051Z,940.86
2023-03-29T05:55:02.952Z,940.84
2023-03-29T06:00:03.187Z,940.86
2023-03-29T06:05:03.012Z,940.84
2023-03-29T06:10:03.174Z,940.80
2023-03-29T06:15:05.184Z,940.78
2023-03-29T06:20:06.542Z,940.78
2023-03-29T06:25:03.365Z,940.82
2023-03-29T06:30:04.253Z,940.86
2023-03-29T06:35:03.322Z,940.80
2023-03-29T06:40:04.199Z,940.80
2023-03-29T06:45:03.142Z,940.82
2023-03-29T06:50:04.217Z,940.76
2023-03-29T06:55:03.333Z,940.74
2023-03-29T07:00:04.293Z,940.68
2023-03-29T07:05:04.247Z,940.64
2023-03-29T07:10:05.289Z,940.63
2023-03-29T07:15:03.518Z,940.55
2023-03-29T07:20:04.249Z,940.45
2023-03-29T07:25:03.211Z,940.43
2023-03-29T07:30:04.165Z,940.41
2023-03-29T07:35:03.247Z,940.47
2023-03-29T07:40:04.221Z,940.49
2023-03-29T07:45:03.320Z,940.51
2023-03-29T07:50:04.234Z,940.53
2023-03-29T07:55:03.216Z,940.59
2023-03-29T08:00:04.245Z,940.68
2023-03-29T08:05:03.233Z,940.74
2023-03-29T08:10:04.285Z,940.80
2023-03-29T08:15:03.097Z,940.78
2023-03-29T08:20:04.183Z,940.82
2023-03-29T08:25:03.188Z,940.82
2023-03-29T08:30:04.337Z,940.86
2023-03-29T08:35:03.309Z,940.92
2023-03-29T08:40:04.332Z,941.02
2023-03-29T08:45:03.312Z,941.09
2023-03-29T08:50:04.302Z,941.13
2023-03-29T08:55:03.258Z,941.11
2023-03-29T09:00:04.278Z,941.09
2023-03-29T09:05:03.212Z,941.17
2023-03-29T09:10:04.301Z,941.23
2023-03-29T09:15:03.116Z,941.27
2023-03-29T09:20:04.218Z,941.31
2023-03-29T09:25:03.305Z,941.29
2023-03-29T09:30:04.304Z,941.35
2023-03-29T09:35:03.370Z,941.43
2023-03-29T09:40:05.253Z,941.53
2023-03-29T09:45:03.152Z,941.63
2023-03-29T09:50:04.154Z,941.68
2023-03-29T09:55:03.270Z,941.72
2023-03-29T10:00:04.186Z,941.78
2023-03-29T10:05:03.269Z,941.86
2023-03-29T10:10:04.244Z,941.98
2023-03-29T10:15:03.195Z,942.08
2023-03-29T10:20:04.587Z,942.13
2023-03-29T10:25:03.222Z,942.21
2023-03-29T10:30:04.242Z,942.33
2023-03-29T10:35:03.199Z,942.33
2023-03-29T10:40:04.321Z,942.41
2023-03-29T10:45:03.094Z,942.53
2023-03-29T10:50:04.181Z,942.57
2023-03-29T10:55:03.280Z,942.61
2023-03-29T11:00:04.230Z,942.72
2023-03-29T11:05:03.214Z,942.84
2023-03-29T11:10:04.373Z,942.88
2023-03-29T11:15:03.350Z,942.94
2023-03-29T11:20:05.248Z,942.92
2023-03-29T11:25:03.199Z,942.94
2023-03-29T11:30:04.222Z,942.98
2023-03-29T11:35:04.234Z,943.02
2023-03-29T11:40:04.336Z,943.02
2023-03-29T11:45:03.186Z,943.08
2023-03-29T11:50:04.132Z,943.12
2023-03-29T11:55:03.181Z,943.23
2023-03-29T12:00:04.191Z,943.20
2023-03-29T12:05:04.258Z,943.21
2023-03-29T12:10:04.177Z,943.23
2023-03-29T12:15:03.347Z,943.33
2023-03-29T12:20:04.198Z,943.27
2023-03-29T12:25:03.265Z,943.29
2023-03-29T12:30:04.220Z,943.33
2023-03-29T12:35:03.251Z,943.33
2023-03-29T12:40:04.249Z,943.31
2023-03-29T12:45:03.282Z,943.31
2023-03-29T12:50:04.207Z,943.29
2023-03-29T12:55:03.340Z,943.27
2023-03-29T13:00:04.185Z,943.31
2023-03-29T13:05:03.317Z,943.31
2023-03-29T13:10:04.347Z,943.39
2023-03-29T13:15:03.110Z,943.37
2023-03-29T13:20:04.170Z,943.33
2023-03-29T13:25:03.201Z,943.29
2023-03-29T13:30:04.265Z,943.25
2023-03-29T13:35:03.218Z,943.25
2023-03-29T13:40:04.357Z,943.29
2023-03-29T13:45:03.115Z,943.31
2023-03-29T13:50:04.185Z,943.27
2023-03-29T13:55:03.919Z,943.25
2023-03-29T14:00:04.296Z,943.21
2023-03-29T14:05:03.296Z,943.23
2023-03-29T14:10:04.241Z,943.25
2023-03-29T14:15:03.372Z,943.23
2023-03-29T14:20:04.438Z,943.25
2023-03-29T14:25:03.240Z,943.27
2023-03-29T14:30:04.238Z,943.20
2023-03-29T14:35:03.251Z,943.12
2023-03-29T14:40:04.355Z,943.10
2023-03-29T14:45:03.317Z,943.02
2023-03-29T14:50:04.588Z,943.02
2023-03-29T14:55:03.238Z,943.12
2023-03-29T15:00:04.317Z,943.08
2023-03-29T15:05:03.521Z,943.08
2023-03-29T15:10:04.300Z,943.02
2023-03-29T15:15:03.415Z,943.02
2023-03-29T15:20:04.400Z,942.94
2023-03-29T15:25:03.131Z,942.98
2023-03-29T15:30:04.218Z,942.94
2023-03-29T15:35:03.232Z,942.86
2023-03-29T15:40:04.322Z,942.80
2023-03-29T15:45:03.160Z,942.80
2023-03-29T15:50:04.175Z,942.72
2023-03-29T15:55:03.312Z,942.63
2023-03-29T16:00:04.315Z,942.43
2023-03-29T16:05:03.291Z,942.35
2023-03-29T16:10:04.362Z,942.25
2023-03-29T16:15:04.329Z,942.11
2023-03-29T16:20:05.247Z,941.90
2023-03-29T16:25:03.211Z,941.86
2023-03-29T16:30:04.273Z,941.90
2023-03-29T16:35:03.207Z,941.84
2023-03-29T16:40:04.279Z,941.68
2023-03-29T16:45:03.221Z,941.57
2023-03-29T16:50:04.163Z,941.59
2023-03-29T16:55:03.181Z,941.55
2023-03-29T17:00:04.181Z,941.70
2023-03-29T17:05:03.311Z,941.92
2023-03-29T17:10:04.298Z,942.00
2023-03-29T17:15:03.309Z,942.10
2023-03-29T17:20:04.440Z,942.33
2023-03-29T17:25:04.329Z,942.21
2023-03-29T17:30:04.297Z,941.90
2023-03-29T17:35:03.244Z,941.29
2023-03-29T17:40:04.253Z,940.92
2023-03-29T17:45:03.331Z,940.49
2023-03-29T17:50:04.204Z,940.37
2023-03-29T17:55:03.161Z,940.25
2023-03-29T18:00:04.360Z,940.31
2023-03-29T18:05:03.314Z,940.59
2023-03-29T18:10:04.364Z,940.86
2023-03-29T18:15:03.340Z,941.09
2023-03-29T18:20:04.194Z,941.08
2023-03-29T18:25:03.164Z,941.17
2023-03-29T18:30:04.194Z,940.92
2023-03-29T18:35:03.258Z,940.86
2023-03-29T18:40:04.275Z,941.09
2023-03-29T18:45:03.289Z,941.19
2023-03-29T18:50:04.211Z,941.39
2023-03-29T18:55:03.453Z,941.57
2023-03-29T19:00:04.208Z,941.90
2023-03-29T19:05:03.287Z,941.68
2023-03-29T19:10:04.370Z,941.55
2023-03-29T19:15:03.326Z,941.63
2023-03-29T19:20:04.615Z,941.72
2023-03-29T19:25:03.197Z,941.70
2023-03-29T19:30:04.318Z,941.70
2023-03-29T19:35:03.261Z,941.47
2023-03-29T19:40:04.374Z,941.23
2023-03-29T19:45:03.322Z,941.23
2023-03-29T19:50:04.228Z,941.45
2023-03-29T19:55:03.222Z,941.47
2023-03-29T20:00:04.289Z,941.39
2023-03-29T20:05:03.278Z,941.37
2023-03-29T20:10:04.350Z,941.13
2023-03-29T20:15:03.357Z,940.90
2023-03-29T20:20:04.496Z,941.02
2023-03-29T20:25:03.194Z,941.47
2023-03-29T20:30:04.243Z,941.55
2023-03-29T20:35:03.290Z,941.63
2023-03-29T20:40:04.331Z,941.63
2023-03-29T20:45:03.396Z,941.68
2023-03-29T20:50:04.189Z,941.70
2023-03-29T20:55:03.467Z,941.61
2023-03-29T21:00:06.167Z,941.53
2023-03-29T21:05:03.228Z,941.47
2023-03-29T21:10:04.429Z,941.49
2023-03-29T21:15:03.317Z,941.64
2023-03-29T21:20:04.132Z,941.76
2023-03-29T21:25:03.275Z,941.98
2023-03-29T21:30:04.283Z,941.88
2023-03-29T21:35:03.308Z,942.02
2023-03-29T21:40:04.347Z,942.29
2023-03-29T21:45:03.341Z,942.57
2023-03-29T21:50:04.414Z,942.63
2023-03-29T21:55:03.206Z,942.49
2023-03-29T22:00:04.271Z,942.53
2023-03-29T22:05:03.367Z,942.51
2023-03-29T22:10:04.346Z,942.49
2023-03-29T22:15:03.525Z,942.35
2023-03-29T22:20:05.665Z,942.49
2023-03-29T22:25:03.235Z,942.76
2023-03-29T22:30:04.270Z,943.12
2023-03-29T22:35:04.286Z,943.35
2023-03-29T22:40:04.505Z,943.37
2023-03-29T22:45:03.367Z,943.29
2023-03-29T22:50:04.328Z,943.65
2023-03-29T22:55:03.248Z,943.63
2023-03-29T23:00:04.470Z,943.68
2023-03-29T23:05:03.304Z,943.59
2023-03-29T23:10:04.328Z,943.49
2023-03-29T23:15:03.431Z,943.39
2023-03-29T23:20:04.485Z,943.35
2023-03-29T23:25:03.318Z,943.37
2023-03-29T23:30:04.615Z,943.23
2023-03-29T23:35:39.794Z,943.31
2023-03-29T23:40:16.478Z,943.27
2023-03-29T23:45:03.346Z,943.27
2023-03-29T23:50:04.341Z,943.29
2023-03-29T23:55:03.217Z,943.35
